sensor_id;sensor_type;location;lat;lon;timestamp;P1;durP1;ratioP1;P2;durP2;ratioP2
26223;SDS011;14820;48.682;8.890;2023-03-21T00:00:25;6.13;;;3.85;;
26223;SDS011;14820;48.682;8.890;2023-03-21T00:02:51;8.13;;;4.38;;
26223;SDS011;14820;48.682;8.890;2023-03-21T00:05:16;9.68;;;4.78;;
26223;SDS011;14820;48.682;8.890;2023-03-21T00:07:44;7.75;;;4.68;;
26223;SDS011;14820;48.682;8.890;2023-03-21T00:10:10;6.90;;;4.18;;
26223;SDS011;14820;48.682;8.890;2023-03-21T00:12:36;7.57;;;4.07;;
26223;SDS011;14820;48.682;8.890;2023-03-21T00:15:05;7.30;;;4.40;;
26223;SDS011;14820;48.682;8.890;2023-03-21T00:17:32;5.45;;;4.25;;
26223;SDS011;14820;48.682;8.890;2023-03-21T00:20:00;7.07;;;4.05;;
26223;SDS011;14820;48.682;8.890;2023-03-21T00:22:29;10.52;;;4.00;;
26223;SDS011;14820;48.682;8.890;2023-03-21T00:24:56;6.43;;;4.03;;
26223;SDS011;14820;48.682;8.890;2023-03-21T00:27:22;9.43;;;4.35;;
26223;SDS011;14820;48.682;8.890;2023-03-21T00:29:47;6.97;;;4.15;;
26223;SDS011;14820;48.682;8.890;2023-03-21T00:32:14;6.93;;;4.03;;
26223;SDS011;14820;48.682;8.890;2023-03-21T00:34:40;7.15;;;3.53;;
26223;SDS011;14820;48.682;8.890;2023-03-21T00:37:07;5.65;;;3.70;;
26223;SDS011;14820;48.682;8.890;2023-03-21T00:39:33;6.18;;;3.72;;
26223;SDS011;14820;48.682;8.890;2023-03-21T00:42:00;6.30;;;3.80;;
26223;SDS011;14820;48.682;8.890;2023-03-21T00:44:28;6.75;;;3.97;;
26223;SDS011;14820;48.682;8.890;2023-03-21T00:46:56;5.22;;;3.60;;
26223;SDS011;14820;48.682;8.890;2023-03-21T00:49:22;7.35;;;4.30;;
26223;SDS011;14820;48.682;8.890;2023-03-21T00:51:47;5.95;;;3.75;;
26223;SDS011;14820;48.682;8.890;2023-03-21T00:54:15;5.35;;;3.28;;
26223;SDS011;14820;48.682;8.890;2023-03-21T00:56:41;5.05;;;3.45;;
26223;SDS011;14820;48.682;8.890;2023-03-21T00:59:07;5.47;;;3.40;;
26223;SDS011;14820;48.682;8.890;2023-03-21T01:01:33;4.97;;;3.40;;
26223;SDS011;14820;48.682;8.890;2023-03-21T01:03:59;5.10;;;3.50;;
26223;SDS011;14820;48.682;8.890;2023-03-21T01:06:37;5.75;;;3.00;;
26223;SDS011;14820;48.682;8.890;2023-03-21T01:09:04;8.65;;;3.45;;
26223;SDS011;14820;48.682;8.890;2023-03-21T01:11:32;5.75;;;3.00;;
26223;SDS011;14820;48.682;8.890;2023-03-21T01:13:58;4.55;;;2.67;;
26223;SDS011;14820;48.682;8.890;2023-03-21T01:16:24;7.38;;;3.55;;
26223;SDS011;14820;48.682;8.890;2023-03-21T01:18:51;27.58;;;12.52;;
26223;SDS011;14820;48.682;8.890;2023-03-21T01:21:18;59.45;;;26.23;;
26223;SDS011;14820;48.682;8.890;2023-03-21T01:23:44;54.30;;;25.25;;
26223;SDS011;14820;48.682;8.890;2023-03-21T01:26:10;25.35;;;14.52;;
26223;SDS011;14820;48.682;8.890;2023-03-21T01:28:37;26.63;;;13.82;;
26223;SDS011;14820;48.682;8.890;2023-03-21T01:31:04;15.52;;;8.82;;
26223;SDS011;14820;48.682;8.890;2023-03-21T01:33:30;6.70;;;3.35;;
26223;SDS011;14820;48.682;8.890;2023-03-21T01:35:59;4.13;;;3.00;;
26223;SDS011;14820;48.682;8.890;2023-03-21T01:38:25;4.00;;;2.83;;
26223;SDS011;14820;48.682;8.890;2023-03-21T01:40:51;4.68;;;3.17;;
26223;SDS011;14820;48.682;8.890;2023-03-21T01:48:28;29.17;;;16.75;;
26223;SDS011;14820;48.682;8.890;2023-03-21T01:50:54;20.85;;;12.25;;
26223;SDS011;14820;48.682;8.890;2023-03-21T01:53:23;17.35;;;10.52;;
26223;SDS011;14820;48.682;8.890;2023-03-21T01:55:57;16.23;;;11.18;;
26223;SDS011;14820;48.682;8.890;2023-03-21T01:58:35;17.42;;;11.63;;
26223;SDS011;14820;48.682;8.890;2023-03-21T02:01:02;10.82;;;5.10;;
26223;SDS011;14820;48.682;8.890;2023-03-21T02:03:28;6.85;;;3.50;;
26223;SDS011;14820;48.682;8.890;2023-03-21T02:06:14;5.38;;;2.97;;
26223;SDS011;14820;48.682;8.890;2023-03-21T02:08:46;9.25;;;3.00;;
26223;SDS011;14820;48.682;8.890;2023-03-21T02:11:12;7.30;;;3.80;;
26223;SDS011;14820;48.682;8.890;2023-03-21T02:13:38;6.07;;;3.08;;
26223;SDS011;14820;48.682;8.890;2023-03-21T02:19:01;9.25;;;3.00;;
26223;SDS011;14820;48.682;8.890;2023-03-21T02:27:18;3.72;;;2.60;;
26223;SDS011;14820;48.682;8.890;2023-03-21T02:35:43;4.18;;;2.50;;
26223;SDS011;14820;48.682;8.890;2023-03-21T02:43:42;3.72;;;2.72;;
26223;SDS011;14820;48.682;8.890;2023-03-21T02:46:21;7.00;;;2.70;;
26223;SDS011;14820;48.682;8.890;2023-03-21T02:49:05;5.60;;;3.00;;
26223;SDS011;14820;48.682;8.890;2023-03-21T02:51:47;4.57;;;3.58;;
26223;SDS011;14820;48.682;8.890;2023-03-21T02:54:16;4.40;;;2.85;;
26223;SDS011;14820;48.682;8.890;2023-03-21T02:56:45;3.30;;;2.38;;
26223;SDS011;14820;48.682;8.890;2023-03-21T02:59:13;6.50;;;2.90;;
26223;SDS011;14820;48.682;8.890;2023-03-21T03:01:41;3.35;;;2.50;;
26223;SDS011;14820;48.682;8.890;2023-03-21T03:04:23;3.85;;;2.80;;
26223;SDS011;14820;48.682;8.890;2023-03-21T03:12:10;4.15;;;2.45;;
26223;SDS011;14820;48.682;8.890;2023-03-21T03:14:51;3.88;;;2.50;;
26223;SDS011;14820;48.682;8.890;2023-03-21T03:22:53;3.70;;;2.50;;
26223;SDS011;14820;48.682;8.890;2023-03-21T03:25:38;3.42;;;2.50;;
26223;SDS011;14820;48.682;8.890;2023-03-21T03:28:13;3.25;;;2.53;;
26223;SDS011;14820;48.682;8.890;2023-03-21T03:30:41;5.32;;;2.70;;
26223;SDS011;14820;48.682;8.890;2023-03-21T03:33:08;3.63;;;2.53;;
26223;SDS011;14820;48.682;8.890;2023-03-21T03:35:35;3.33;;;2.30;;
26223;SDS011;14820;48.682;8.890;2023-03-21T03:38:02;5.40;;;2.50;;
26223;SDS011;14820;48.682;8.890;2023-03-21T03:40:32;5.03;;;2.65;;
26223;SDS011;14820;48.682;8.890;2023-03-21T03:43:02;7.63;;;2.60;;
26223;SDS011;14820;48.682;8.890;2023-03-21T03:45:33;4.55;;;2.70;;
26223;SDS011;14820;48.682;8.890;2023-03-21T03:51:12;6.13;;;2.63;;
26223;SDS011;14820;48.682;8.890;2023-03-21T03:53:46;3.15;;;2.10;;
26223;SDS011;14820;48.682;8.890;2023-03-21T03:56:19;7.82;;;2.70;;
26223;SDS011;14820;48.682;8.890;2023-03-21T03:58:46;3.80;;;2.28;;
26223;SDS011;14820;48.682;8.890;2023-03-21T04:01:12;3.63;;;2.28;;
26223;SDS011;14820;48.682;8.890;2023-03-21T04:03:39;4.50;;;2.22;;
26223;SDS011;14820;48.682;8.890;2023-03-21T04:06:06;3.60;;;2.40;;
26223;SDS011;14820;48.682;8.890;2023-03-21T04:08:32;5.57;;;3.08;;
26223;SDS011;14820;48.682;8.890;2023-03-21T04:10:58;5.40;;;2.80;;
26223;SDS011;14820;48.682;8.890;2023-03-21T04:13:26;6.03;;;2.60;;
26223;SDS011;14820;48.682;8.890;2023-03-21T04:15:52;5.03;;;3.20;;
26223;SDS011;14820;48.682;8.890;2023-03-21T04:18:17;5.18;;;2.40;;
26223;SDS011;14820;48.682;8.890;2023-03-21T04:20:43;3.75;;;2.20;;
26223;SDS011;14820;48.682;8.890;2023-03-21T04:23:09;3.08;;;2.20;;
26223;SDS011;14820;48.682;8.890;2023-03-21T04:25:35;5.50;;;2.70;;
26223;SDS011;14820;48.682;8.890;2023-03-21T04:28:01;5.50;;;2.35;;
26223;SDS011;14820;48.682;8.890;2023-03-21T04:30:27;7.00;;;2.63;;
26223;SDS011;14820;48.682;8.890;2023-03-21T04:32:58;3.85;;;2.50;;
26223;SDS011;14820;48.682;8.890;2023-03-21T04:35:25;4.95;;;2.55;;
26223;SDS011;14820;48.682;8.890;2023-03-21T04:37:50;4.47;;;2.50;;
26223;SDS011;14820;48.682;8.890;2023-03-21T04:40:16;4.38;;;2.85;;
26223;SDS011;14820;48.682;8.890;2023-03-21T04:42:43;4.43;;;3.05;;
26223;SDS011;14820;48.682;8.890;2023-03-21T04:45:09;6.47;;;3.38;;
26223;SDS011;14820;48.682;8.890;2023-03-21T04:47:36;4.22;;;2.80;;
26223;SDS011;14820;48.682;8.890;2023-03-21T04:50:02;3.45;;;2.63;;
26223;SDS011;14820;48.682;8.890;2023-03-21T04:52:27;4.82;;;2.75;;
26223;SDS011;14820;48.682;8.890;2023-03-21T04:54:53;5.07;;;3.28;;
26223;SDS011;14820;48.682;8.890;2023-03-21T04:57:20;3.75;;;2.65;;
26223;SDS011;14820;48.682;8.890;2023-03-21T04:59:46;5.68;;;2.90;;
26223;SDS011;14820;48.682;8.890;2023-03-21T05:02:11;3.88;;;2.60;;
26223;SDS011;14820;48.682;8.890;2023-03-21T05:04:37;4.22;;;2.28;;
26223;SDS011;14820;48.682;8.890;2023-03-21T05:07:03;6.20;;;2.72;;
26223;SDS011;14820;48.682;8.890;2023-03-21T05:09:29;5.20;;;3.00;;
26223;SDS011;14820;48.682;8.890;2023-03-21T05:11:55;7.00;;;2.97;;
26223;SDS011;14820;48.682;8.890;2023-03-21T05:14:22;4.80;;;3.03;;
26223;SDS011;14820;48.682;8.890;2023-03-21T05:16:49;5.75;;;3.00;;
26223;SDS011;14820;48.682;8.890;2023-03-21T05:19:23;8.25;;;3.25;;
26223;SDS011;14820;48.682;8.890;2023-03-21T05:22:03;3.47;;;2.75;;
26223;SDS011;14820;48.682;8.890;2023-03-21T05:24:31;12.85;;;4.82;;
26223;SDS011;14820;48.682;8.890;2023-03-21T05:26:57;5.57;;;3.50;;
26223;SDS011;14820;48.682;8.890;2023-03-21T05:29:27;7.32;;;2.90;;
26223;SDS011;14820;48.682;8.890;2023-03-21T05:31:54;4.60;;;3.35;;
26223;SDS011;14820;48.682;8.890;2023-03-21T05:34:20;6.05;;;3.17;;
26223;SDS011;14820;48.682;8.890;2023-03-21T05:36:46;6.30;;;3.17;;
26223;SDS011;14820;48.682;8.890;2023-03-21T05:39:12;6.88;;;3.45;;
26223;SDS011;14820;48.682;8.890;2023-03-21T05:41:37;4.97;;;3.13;;
26223;SDS011;14820;48.682;8.890;2023-03-21T05:44:03;4.72;;;3.40;;
26223;SDS011;14820;48.682;8.890;2023-03-21T05:46:29;4.47;;;2.92;;
26223;SDS011;14820;48.682;8.890;2023-03-21T05:48:55;7.40;;;3.30;;
26223;SDS011;14820;48.682;8.890;2023-03-21T05:51:20;4.18;;;3.28;;
26223;SDS011;14820;48.682;8.890;2023-03-21T05:53:46;5.85;;;3.35;;
26223;SDS011;14820;48.682;8.890;2023-03-21T05:56:12;4.70;;;3.47;;
26223;SDS011;14820;48.682;8.890;2023-03-21T05:58:38;6.20;;;3.33;;
26223;SDS011;14820;48.682;8.890;2023-03-21T06:01:04;7.75;;;3.75;;
26223;SDS011;14820;48.682;8.890;2023-03-21T06:03:30;5.80;;;3.70;;
26223;SDS011;14820;48.682;8.890;2023-03-21T06:05:55;6.22;;;3.38;;
26223;SDS011;14820;48.682;8.890;2023-03-21T06:08:21;7.85;;;3.35;;
26223;SDS011;14820;48.682;8.890;2023-03-21T06:10:47;5.20;;;3.20;;
26223;SDS011;14820;48.682;8.890;2023-03-21T06:13:12;6.05;;;3.35;;
26223;SDS011;14820;48.682;8.890;2023-03-21T06:15:39;7.40;;;3.20;;
26223;SDS011;14820;48.682;8.890;2023-03-21T06:18:05;6.63;;;3.25;;
26223;SDS011;14820;48.682;8.890;2023-03-21T06:20:31;26.92;;;13.10;;
26223;SDS011;14820;48.682;8.890;2023-03-21T06:22:57;9.40;;;6.05;;
26223;SDS011;14820;48.682;8.890;2023-03-21T06:25:22;8.77;;;4.47;;
26223;SDS011;14820;48.682;8.890;2023-03-21T06:27:48;9.60;;;5.43;;
26223;SDS011;14820;48.682;8.890;2023-03-21T06:30:14;7.78;;;5.13;;
26223;SDS011;14820;48.682;8.890;2023-03-21T06:32:40;6.22;;;4.18;;
26223;SDS011;14820;48.682;8.890;2023-03-21T06:35:06;6.80;;;4.53;;
26223;SDS011;14820;48.682;8.890;2023-03-21T06:37:32;6.55;;;4.50;;
26223;SDS011;14820;48.682;8.890;2023-03-21T06:39:58;10.15;;;4.57;;
26223;SDS011;14820;48.682;8.890;2023-03-21T06:42:23;6.30;;;4.30;;
26223;SDS011;14820;48.682;8.890;2023-03-21T06:44:49;8.95;;;4.40;;
26223;SDS011;14820;48.682;8.890;2023-03-21T06:47:15;5.40;;;3.42;;
26223;SDS011;14820;48.682;8.890;2023-03-21T06:49:40;5.07;;;3.88;;
26223;SDS011;14820;48.682;8.890;2023-03-21T06:52:07;4.28;;;2.92;;
26223;SDS011;14820;48.682;8.890;2023-03-21T06:54:33;5.03;;;3.60;;
26223;SDS011;14820;48.682;8.890;2023-03-21T06:57:00;5.82;;;3.38;;
26223;SDS011;14820;48.682;8.890;2023-03-21T06:59:26;6.03;;;3.38;;
26223;SDS011;14820;48.682;8.890;2023-03-21T07:01:51;6.80;;;3.10;;
26223;SDS011;14820;48.682;8.890;2023-03-21T07:04:17;5.63;;;3.38;;
26223;SDS011;14820;48.682;8.890;2023-03-21T07:06:43;10.10;;;3.58;;
26223;SDS011;14820;48.682;8.890;2023-03-21T07:09:08;5.43;;;3.03;;
26223;SDS011;14820;48.682;8.890;2023-03-21T07:11:35;4.05;;;2.92;;
26223;SDS011;14820;48.682;8.890;2023-03-21T07:14:01;6.25;;;2.92;;
26223;SDS011;14820;48.682;8.890;2023-03-21T07:16:27;5.80;;;3.38;;
26223;SDS011;14820;48.682;8.890;2023-03-21T07:18:53;6.88;;;2.92;;
26223;SDS011;14820;48.682;8.890;2023-03-21T07:21:20;3.60;;;3.00;;
26223;SDS011;14820;48.682;8.890;2023-03-21T07:23:45;6.03;;;3.63;;
26223;SDS011;14820;48.682;8.890;2023-03-21T07:26:11;3.90;;;3.00;;
26223;SDS011;14820;48.682;8.890;2023-03-21T07:28:37;6.18;;;2.90;;
26223;SDS011;14820;48.682;8.890;2023-03-21T07:31:03;6.57;;;3.60;;
26223;SDS011;14820;48.682;8.890;2023-03-21T07:33:30;6.30;;;3.42;;
26223;SDS011;14820;48.682;8.890;2023-03-21T07:35:57;4.13;;;2.75;;
26223;SDS011;14820;48.682;8.890;2023-03-21T07:38:23;6.20;;;2.90;;
26223;SDS011;14820;48.682;8.890;2023-03-21T07:40:50;5.55;;;3.33;;
26223;SDS011;14820;48.682;8.890;2023-03-21T07:43:16;6.05;;;3.20;;
26223;SDS011;14820;48.682;8.890;2023-03-21T07:45:43;5.13;;;3.50;;
26223;SDS011;14820;48.682;8.890;2023-03-21T07:48:12;5.75;;;3.17;;
26223;SDS011;14820;48.682;8.890;2023-03-21T07:50:41;4.70;;;2.75;;
26223;SDS011;14820;48.682;8.890;2023-03-21T07:53:07;3.58;;;2.60;;
26223;SDS011;14820;48.682;8.890;2023-03-21T07:55:33;4.07;;;2.58;;
26223;SDS011;14820;48.682;8.890;2023-03-21T07:58:00;4.75;;;2.20;;
26223;SDS011;14820;48.682;8.890;2023-03-21T08:00:30;3.92;;;2.70;;
26223;SDS011;14820;48.682;8.890;2023-03-21T08:02:56;3.30;;;2.28;;
26223;SDS011;14820;48.682;8.890;2023-03-21T08:05:24;4.40;;;2.90;;
26223;SDS011;14820;48.682;8.890;2023-03-21T08:07:54;3.90;;;2.40;;
26223;SDS011;14820;48.682;8.890;2023-03-21T08:10:23;6.70;;;2.72;;
26223;SDS011;14820;48.682;8.890;2023-03-21T08:12:49;6.07;;;3.10;;
26223;SDS011;14820;48.682;8.890;2023-03-21T08:15:16;4.95;;;2.83;;
26223;SDS011;14820;48.682;8.890;2023-03-21T08:17:42;5.15;;;2.85;;
26223;SDS011;14820;48.682;8.890;2023-03-21T08:20:10;4.70;;;2.80;;
26223;SDS011;14820;48.682;8.890;2023-03-21T08:22:38;4.35;;;2.70;;
26223;SDS011;14820;48.682;8.890;2023-03-21T08:25:05;6.20;;;2.40;;
26223;SDS011;14820;48.682;8.890;2023-03-21T08:27:32;6.60;;;2.22;;
26223;SDS011;14820;48.682;8.890;2023-03-21T08:29:58;4.93;;;2.72;;
26223;SDS011;14820;48.682;8.890;2023-03-21T08:32:24;3.97;;;2.30;;
26223;SDS011;14820;48.682;8.890;2023-03-21T08:34:54;5.72;;;2.97;;
26223;SDS011;14820;48.682;8.890;2023-03-21T08:37:23;4.28;;;2.25;;
26223;SDS011;14820;48.682;8.890;2023-03-21T08:39:49;5.63;;;2.17;;
26223;SDS011;14820;48.682;8.890;2023-03-21T08:42:15;4.05;;;2.53;;
26223;SDS011;14820;48.682;8.890;2023-03-21T08:44:41;4.15;;;2.60;;
26223;SDS011;14820;48.682;8.890;2023-03-21T08:47:06;3.67;;;2.38;;
26223;SDS011;14820;48.682;8.890;2023-03-21T08:49:33;5.35;;;2.58;;
26223;SDS011;14820;48.682;8.890;2023-03-21T08:52:00;6.25;;;2.50;;
26223;SDS011;14820;48.682;8.890;2023-03-21T08:54:25;7.88;;;2.65;;
26223;SDS011;14820;48.682;8.890;2023-03-21T08:56:51;3.78;;;2.53;;
26223;SDS011;14820;48.682;8.890;2023-03-21T08:59:17;3.88;;;2.45;;
26223;SDS011;14820;48.682;8.890;2023-03-21T09:01:43;4.15;;;2.67;;
26223;SDS011;14820;48.682;8.890;2023-03-21T09:04:11;2.80;;;2.28;;
26223;SDS011;14820;48.682;8.890;2023-03-21T09:06:37;7.53;;;3.72;;
26223;SDS011;14820;48.682;8.890;2023-03-21T09:09:09;3.90;;;2.58;;
26223;SDS011;14820;48.682;8.890;2023-03-21T09:11:36;3.47;;;2.63;;
26223;SDS011;14820;48.682;8.890;2023-03-21T09:14:02;3.75;;;2.50;;
26223;SDS011;14820;48.682;8.890;2023-03-21T09:16:28;3.95;;;2.25;;
26223;SDS011;14820;48.682;8.890;2023-03-21T09:18:55;3.63;;;2.70;;
26223;SDS011;14820;48.682;8.890;2023-03-21T09:21:23;8.18;;;2.65;;
26223;SDS011;14820;48.682;8.890;2023-03-21T09:23:52;4.15;;;2.60;;
26223;SDS011;14820;48.682;8.890;2023-03-21T09:26:20;3.70;;;2.42;;
26223;SDS011;14820;48.682;8.890;2023-03-21T09:28:47;4.47;;;2.50;;
26223;SDS011;14820;48.682;8.890;2023-03-21T09:31:13;4.13;;;2.60;;
26223;SDS011;14820;48.682;8.890;2023-03-21T09:33:45;3.70;;;2.40;;
26223;SDS011;14820;48.682;8.890;2023-03-21T09:36:14;3.50;;;2.38;;
26223;SDS011;14820;48.682;8.890;2023-03-21T09:38:42;2.80;;;2.00;;
26223;SDS011;14820;48.682;8.890;2023-03-21T09:51:46;4.07;;;2.50;;
26223;SDS011;14820;48.682;8.890;2023-03-21T09:56:55;5.67;;;2.50;;
26223;SDS011;14820;48.682;8.890;2023-03-21T09:59:30;3.47;;;2.03;;
26223;SDS011;14820;48.682;8.890;2023-03-21T10:05:05;4.05;;;2.38;;
26223;SDS011;14820;48.682;8.890;2023-03-21T10:07:43;3.38;;;2.10;;
26223;SDS011;14820;48.682;8.890;2023-03-21T10:10:31;4.53;;;2.42;;
26223;SDS011;14820;48.682;8.890;2023-03-21T10:13:04;3.53;;;2.40;;
26223;SDS011;14820;48.682;8.890;2023-03-21T10:15:36;3.10;;;2.30;;
26223;SDS011;14820;48.682;8.890;2023-03-21T10:18:04;3.10;;;2.45;;
26223;SDS011;14820;48.682;8.890;2023-03-21T10:20:33;3.42;;;2.20;;
26223;SDS011;14820;48.682;8.890;2023-03-21T10:23:02;5.00;;;2.33;;
26223;SDS011;14820;48.682;8.890;2023-03-21T10:27:58;5.13;;;2.42;;
26223;SDS011;14820;48.682;8.890;2023-03-21T10:33:06;4.03;;;2.42;;
26223;SDS011;14820;48.682;8.890;2023-03-21T10:35:35;5.43;;;2.70;;
26223;SDS011;14820;48.682;8.890;2023-03-21T10:38:03;4.18;;;2.60;;
26223;SDS011;14820;48.682;8.890;2023-03-21T10:40:30;3.72;;;2.20;;
26223;SDS011;14820;48.682;8.890;2023-03-21T10:42:56;5.97;;;2.70;;
26223;SDS011;14820;48.682;8.890;2023-03-21T10:45:39;5.45;;;2.65;;
26223;SDS011;14820;48.682;8.890;2023-03-21T10:48:06;3.28;;;2.50;;
26223;SDS011;14820;48.682;8.890;2023-03-21T10:50:32;4.38;;;2.58;;
26223;SDS011;14820;48.682;8.890;2023-03-21T10:52:59;3.88;;;2.47;;
26223;SDS011;14820;48.682;8.890;2023-03-21T10:55:30;5.13;;;2.72;;
26223;SDS011;14820;48.682;8.890;2023-03-21T10:57:59;4.70;;;2.60;;
26223;SDS011;14820;48.682;8.890;2023-03-21T11:00:29;4.35;;;2.67;;
26223;SDS011;14820;48.682;8.890;2023-03-21T11:02:57;3.92;;;2.90;;
26223;SDS011;14820;48.682;8.890;2023-03-21T11:05:35;3.42;;;2.67;;
26223;SDS011;14820;48.682;8.890;2023-03-21T11:08:03;5.60;;;2.95;;
26223;SDS011;14820;48.682;8.890;2023-03-21T11:10:32;3.30;;;2.45;;
26223;SDS011;14820;48.682;8.890;2023-03-21T11:13:02;6.70;;;3.53;;
26223;SDS011;14820;48.682;8.890;2023-03-21T11:15:32;4.03;;;2.88;;
26223;SDS011;14820;48.682;8.890;2023-03-21T11:18:17;3.83;;;2.80;;
26223;SDS011;14820;48.682;8.890;2023-03-21T11:20:51;3.88;;;2.47;;
26223;SDS011;14820;48.682;8.890;2023-03-21T11:23:22;3.72;;;2.60;;
26223;SDS011;14820;48.682;8.890;2023-03-21T11:25:52;3.35;;;2.50;;
26223;SDS011;14820;48.682;8.890;2023-03-21T11:28:20;5.07;;;2.47;;
26223;SDS011;14820;48.682;8.890;2023-03-21T11:30:51;5.85;;;2.63;;
26223;SDS011;14820;48.682;8.890;2023-03-21T11:33:24;6.05;;;2.20;;
26223;SDS011;14820;48.682;8.890;2023-03-21T11:38:43;8.75;;;2.70;;
26223;SDS011;14820;48.682;8.890;2023-03-21T11:41:21;4.45;;;2.30;;
26223;SDS011;14820;48.682;8.890;2023-03-21T11:43:53;3.47;;;2.22;;
26223;SDS011;14820;48.682;8.890;2023-03-21T11:46:23;3.20;;;2.28;;
26223;SDS011;14820;48.682;8.890;2023-03-21T11:48:54;4.88;;;2.65;;
26223;SDS011;14820;48.682;8.890;2023-03-21T11:57:30;3.22;;;2.20;;
26223;SDS011;14820;48.682;8.890;2023-03-21T12:05:56;3.72;;;2.40;;
26223;SDS011;14820;48.682;8.890;2023-03-21T12:08:27;4.70;;;2.17;;
26223;SDS011;14820;48.682;8.890;2023-03-21T12:11:00;7.50;;;3.05;;
26223;SDS011;14820;48.682;8.890;2023-03-21T12:21:44;2.90;;;2.03;;
26223;SDS011;14820;48.682;8.890;2023-03-21T12:24:41;4.25;;;2.20;;
26223;SDS011;14820;48.682;8.890;2023-03-21T12:30:23;5.18;;;2.22;;
26223;SDS011;14820;48.682;8.890;2023-03-21T12:38:42;2.85;;;2.05;;
26223;SDS011;14820;48.682;8.890;2023-03-21T12:41:27;2.95;;;1.92;;
26223;SDS011;14820;48.682;8.890;2023-03-21T12:44:09;5.55;;;2.55;;
26223;SDS011;14820;48.682;8.890;2023-03-21T12:49:24;4.05;;;1.90;;
26223;SDS011;14820;48.682;8.890;2023-03-21T12:52:03;2.78;;;1.77;;
26223;SDS011;14820;48.682;8.890;2023-03-21T12:59:57;3.17;;;1.88;;
26223;SDS011;14820;48.682;8.890;2023-03-21T13:03:28;2.40;;;2.00;;
26223;SDS011;14820;48.682;8.890;2023-03-21T13:08:06;2.17;;;1.58;;
26223;SDS011;14820;48.682;8.890;2023-03-21T13:10:40;2.78;;;1.88;;
26223;SDS011;14820;48.682;8.890;2023-03-21T13:24:00;3.22;;;2.08;;
26223;SDS011;14820;48.682;8.890;2023-03-21T13:26:47;3.22;;;1.90;;
26223;SDS011;14820;48.682;8.890;2023-03-21T13:29:25;4.55;;;2.10;;
26223;SDS011;14820;48.682;8.890;2023-03-21T13:32:09;3.03;;;1.83;;
26223;SDS011;14820;48.682;8.890;2023-03-21T13:37:49;2.80;;;1.52;;
26223;SDS011;14820;48.682;8.890;2023-03-21T13:40:27;2.17;;;1.23;;
26223;SDS011;14820;48.682;8.890;2023-03-21T13:43:01;1.98;;;1.10;;
26223;SDS011;14820;48.682;8.890;2023-03-21T13:45:50;1.60;;;1.05;;
26223;SDS011;14820;48.682;8.890;2023-03-21T13:48:27;2.88;;;1.38;;
26223;SDS011;14820;48.682;8.890;2023-03-21T13:51:36;1.70;;;1.20;;
26223;SDS011;14820;48.682;8.890;2023-03-21T14:00:12;1.05;;;0.90;;
26223;SDS011;14820;48.682;8.890;2023-03-21T14:04:39;1.88;;;1.05;;
26223;SDS011;14820;48.682;8.890;2023-03-21T14:07:08;1.10;;;0.88;;
26223;SDS011;14820;48.682;8.890;2023-03-21T14:09:45;1.33;;;0.90;;
26223;SDS011;14820;48.682;8.890;2023-03-21T14:12:16;1.85;;;0.93;;
26223;SDS011;14820;48.682;8.890;2023-03-21T14:14:52;1.02;;;0.80;;
26223;SDS011;14820;48.682;8.890;2023-03-21T14:17:33;3.20;;;0.80;;
26223;SDS011;14820;48.682;8.890;2023-03-21T14:20:10;1.58;;;0.90;;
26223;SDS011;14820;48.682;8.890;2023-03-21T14:22:39;1.20;;;0.90;;
26223;SDS011;14820;48.682;8.890;2023-03-21T14:25:10;2.92;;;1.20;;
26223;SDS011;14820;48.682;8.890;2023-03-21T14:27:37;2.35;;;1.00;;
26223;SDS011;14820;48.682;8.890;2023-03-21T14:30:26;1.45;;;0.82;;
26223;SDS011;14820;48.682;8.890;2023-03-21T14:35:59;1.55;;;0.80;;
26223;SDS011;14820;48.682;8.890;2023-03-21T14:38:37;1.85;;;0.75;;
26223;SDS011;14820;48.682;8.890;2023-03-21T14:41:23;1.00;;;0.80;;
26223;SDS011;14820;48.682;8.890;2023-03-21T14:46:37;1.98;;;1.08;;
26223;SDS011;14820;48.682;8.890;2023-03-21T14:52:06;1.10;;;1.00;;
26223;SDS011;14820;48.682;8.890;2023-03-21T14:54:40;2.75;;;0.82;;
26223;SDS011;14820;48.682;8.890;2023-03-21T14:57:10;1.17;;;0.90;;
26223;SDS011;14820;48.682;8.890;2023-03-21T14:59:38;0.85;;;0.73;;
26223;SDS011;14820;48.682;8.890;2023-03-21T15:02:27;7.20;;;1.23;;
26223;SDS011;14820;48.682;8.890;2023-03-21T15:04:58;1.35;;;0.77;;
26223;SDS011;14820;48.682;8.890;2023-03-21T15:07:33;0.82;;;0.80;;
26223;SDS011;14820;48.682;8.890;2023-03-21T15:10:05;0.88;;;0.70;;
26223;SDS011;14820;48.682;8.890;2023-03-21T15:12:37;1.95;;;1.25;;
26223;SDS011;14820;48.682;8.890;2023-03-21T15:15:17;2.80;;;1.42;;
26223;SDS011;14820;48.682;8.890;2023-03-21T15:17:44;3.65;;;1.60;;
26223;SDS011;14820;48.682;8.890;2023-03-21T15:20:14;3.35;;;1.58;;
26223;SDS011;14820;48.682;8.890;2023-03-21T15:22:43;3.30;;;1.65;;
26223;SDS011;14820;48.682;8.890;2023-03-21T15:25:13;2.35;;;1.60;;
26223;SDS011;14820;48.682;8.890;2023-03-21T15:27:47;4.18;;;1.70;;
26223;SDS011;14820;48.682;8.890;2023-03-21T15:30:19;5.85;;;1.90;;
26223;SDS011;14820;48.682;8.890;2023-03-21T15:32:45;5.10;;;1.98;;
26223;SDS011;14820;48.682;8.890;2023-03-21T15:35:15;3.92;;;1.50;;
26223;SDS011;14820;48.682;8.890;2023-03-21T15:37:56;3.85;;;1.77;;
26223;SDS011;14820;48.682;8.890;2023-03-21T15:40:30;5.90;;;1.85;;
26223;SDS011;14820;48.682;8.890;2023-03-21T15:43:12;4.10;;;1.70;;
26223;SDS011;14820;48.682;8.890;2023-03-21T15:45:47;5.70;;;1.85;;
26223;SDS011;14820;48.682;8.890;2023-03-21T15:48:15;6.60;;;1.88;;
26223;SDS011;14820;48.682;8.890;2023-03-21T15:51:04;4.22;;;1.70;;
26223;SDS011;14820;48.682;8.890;2023-03-21T15:53:31;5.80;;;1.85;;
26223;SDS011;14820;48.682;8.890;2023-03-21T15:55:59;4.95;;;1.83;;
26223;SDS011;14820;48.682;8.890;2023-03-21T15:58:31;4.68;;;1.98;;
26223;SDS011;14820;48.682;8.890;2023-03-21T16:01:05;2.85;;;1.70;;
26223;SDS011;14820;48.682;8.890;2023-03-21T16:03:40;3.42;;;2.08;;
26223;SDS011;14820;48.682;8.890;2023-03-21T16:08:37;4.00;;;1.70;;
26223;SDS011;14820;48.682;8.890;2023-03-21T16:13:51;2.97;;;1.65;;
26223;SDS011;14820;48.682;8.890;2023-03-21T16:16:28;2.25;;;1.50;;
26223;SDS011;14820;48.682;8.890;2023-03-21T16:18:56;5.43;;;2.17;;
26223;SDS011;14820;48.682;8.890;2023-03-21T16:21:25;7.88;;;1.70;;
26223;SDS011;14820;48.682;8.890;2023-03-21T16:23:54;3.03;;;1.70;;
26223;SDS011;14820;48.682;8.890;2023-03-21T16:26:21;4.28;;;1.70;;
26223;SDS011;14820;48.682;8.890;2023-03-21T16:28:49;3.60;;;1.75;;
26223;SDS011;14820;48.682;8.890;2023-03-21T16:31:20;2.90;;;1.90;;
26223;SDS011;14820;48.682;8.890;2023-03-21T16:33:47;3.17;;;1.83;;
26223;SDS011;14820;48.682;8.890;2023-03-21T16:36:14;5.05;;;1.88;;
26223;SDS011;14820;48.682;8.890;2023-03-21T16:38:46;4.00;;;2.40;;
26223;SDS011;14820;48.682;8.890;2023-03-21T16:41:19;3.95;;;1.85;;
26223;SDS011;14820;48.682;8.890;2023-03-21T16:43:46;6.00;;;2.20;;
26223;SDS011;14820;48.682;8.890;2023-03-21T16:48:38;4.25;;;2.17;;
26223;SDS011;14820;48.682;8.890;2023-03-21T16:51:04;3.70;;;1.90;;
26223;SDS011;14820;48.682;8.890;2023-03-21T16:53:30;5.35;;;2.10;;
26223;SDS011;14820;48.682;8.890;2023-03-21T16:55:56;3.33;;;2.03;;
26223;SDS011;14820;48.682;8.890;2023-03-21T16:58:26;5.90;;;2.00;;
26223;SDS011;14820;48.682;8.890;2023-03-21T17:00:55;3.25;;;1.70;;
26223;SDS011;14820;48.682;8.890;2023-03-21T17:03:21;5.25;;;1.90;;
26223;SDS011;14820;48.682;8.890;2023-03-21T17:05:50;6.22;;;1.90;;
26223;SDS011;14820;48.682;8.890;2023-03-21T17:08:19;4.90;;;2.00;;
26223;SDS011;14820;48.682;8.890;2023-03-21T17:10:45;3.53;;;1.90;;
26223;SDS011;14820;48.682;8.890;2023-03-21T17:13:11;2.70;;;2.00;;
26223;SDS011;14820;48.682;8.890;2023-03-21T17:15:37;4.50;;;2.08;;
26223;SDS011;14820;48.682;8.890;2023-03-21T17:18:06;3.58;;;1.80;;
26223;SDS011;14820;48.682;8.890;2023-03-21T17:20:33;6.15;;;1.80;;